Time;durP1;ratioP1;P1;durP2;ratioP2;P2;SDS_P1;SDS_P2;PMS_P1;PMS_P2;Temp;Humidity;BMP_temperature;BMP_pressure;BME280_temperature;BME280_humidity;BME280_pressure;Samples;Min_cycle;Max_cycle;Signal;HPM_P1;HPM_P2
2022/03/19 00:01:32;;;;;;;;;;;1.00;83.80;;;;;;5023789;28;19936;-80
2022/03/19 00:03:58;;;;;;;;;;;1.00;83.90;;;;;;5023493;28;20412;-79
2022/03/19 00:06:24;;;;;;;;;;;1.00;83.60;;;;;;5023759;28;20152;-79
2022/03/19 00:08:50;;;;;;;;;;;0.90;83.60;;;;;;5005757;28;19910;-80
2022/03/19 00:11:15;;;;;;;;;;;0.90;84.10;;;;;;5022926;28;19913;-79
2022/03/19 00:13:41;;;;;;;;;;;0.90;83.60;;;;;;5025329;28;19944;-80
2022/03/19 00:16:06;;;;;;;;;;;0.80;84.50;;;;;;5024781;28;19929;-79
2022/03/19 00:18:32;;;;;;;;;;;0.80;84.20;;;;;;5024753;28;20338;-80
2022/03/19 00:20:58;;;;;;;;;;;0.80;84.50;;;;;;5024165;28;19913;-80
2022/03/19 00:23:23;;;;;;;;;;;0.80;84.60;;;;;;5024180;28;19909;-79
2022/03/19 00:25:50;;;;;;;;;;;0.80;84.50;;;;;;5024595;28;19917;-80
2022/03/19 00:28:18;;;;;;;;;;;0.80;84.30;;;;;;5024621;28;20579;-80
2022/03/19 00:30:45;;;;;;;;;;;0.70;84.20;;;;;;5022659;28;20000;-80
2022/03/19 00:33:11;;;;;;;;;;;0.70;84.20;;;;;;5022542;28;19929;-79
2022/03/19 00:35:37;;;;;;;;;;;2.70;85.20;;;;;;5022185;28;20011;-79
2022/03/19 00:38:04;;;;;;;;;;;0.70;84.10;;;;;;5021291;28;20024;-79
2022/03/19 00:40:30;;;;;;;;;;;0.60;84.20;;;;;;5020247;28;19909;-80
2022/03/19 00:42:57;;;;;;;;;;;1.90;85.00;;;;;;5021501;28;19964;-79
2022/03/19 00:45:22;;;;;;;;;;;0.60;84.30;;;;;;5019798;28;19909;-80
2022/03/19 00:47:48;;;;;;;;;;;0.60;84.70;;;;;;5021471;28;19996;-79
2022/03/19 00:50:14;;;;;;;;;;;2.60;86.30;;;;;;5021575;28;20198;-79
2022/03/19 00:52:39;;;;;;;;;;;0.50;86.00;;;;;;5021586;28;20419;-80
2022/03/19 00:55:09;;;;;;;;;;;0.50;86.00;;;;;;5020022;28;19928;-80
2022/03/19 00:57:41;;;;;;;;;;;0.50;86.70;;;;;;5020818;28;20362;-80
2022/03/19 01:00:08;;;;;;;;;;;0.40;87.10;;;;;;5019628;28;20555;-79
2022/03/19 01:02:33;;;;;;;;;;;0.40;87.20;;;;;;5020951;28;19913;-79
2022/03/19 01:04:59;;;;;;;;;;;0.40;87.10;;;;;;5020552;28;19924;-79
2022/03/19 01:07:24;;;;;;;;;;;0.30;87.20;;;;;;5021477;28;20568;-79
2022/03/19 01:09:50;;;;;;;;;;;0.40;87.90;;;;;;5028243;28;19932;-80
2022/03/19 01:12:15;;;;;;;;;;;0.30;88.00;;;;;;5026699;28;20015;-80
2022/03/19 01:14:41;;;;;;;;;;;0.30;87.40;;;;;;5027346;28;19992;-80
2022/03/19 01:17:08;;;;;;;;;;;0.30;87.40;;;;;;5023480;28;20364;-80
2022/03/19 01:22:18;;;;;;;;;;;0.20;87.60;;;;;;5021578;28;19916;-80
2022/03/19 01:24:44;;;;;;;;;;;0.10;87.40;;;;;;5026231;28;19917;-80
2022/03/19 01:27:10;;;;;;;;;;;0.10;87.80;;;;;;5027888;28;20288;-80
2022/03/19 01:29:36;;;;;;;;;;;0.10;88.10;;;;;;5027220;28;19963;-80
2022/03/19 01:32:01;;;;;;;;;;;0.10;88.20;;;;;;5028871;28;19909;-80
2022/03/19 01:34:28;;;;;;;;;;;0.10;88.70;;;;;;5028145;28;19913;-80
2022/03/19 01:36:54;;;;;;;;;;;0.10;88.90;;;;;;5023329;28;19948;-80
2022/03/19 01:39:20;;;;;;;;;;;0.10;88.90;;;;;;5030007;28;20477;-80
2022/03/19 01:41:45;;;;;;;;;;;0.10;89.10;;;;;;5031115;28;19909;-80
2022/03/19 01:44:21;;;;;;;;;;;0.10;89.00;;;;;;5032266;28;19913;-80
2022/03/19 01:47:10;;;;;;;;;;;0.00;89.10;;;;;;5027992;28;19932;-80
2022/03/19 01:49:36;;;;;;;;;;;0.00;89.10;;;;;;5022024;28;20202;-80
2022/03/19 01:52:02;;;;;;;;;;;0.20;89.60;;;;;;5021855;28;19909;-79
2022/03/19 01:54:32;;;;;;;;;;;0.00;89.50;;;;;;5023295;28;20248;-79
2022/03/19 01:56:58;;;;;;;;;;;0.00;89.50;;;;;;5024513;28;20241;-80
2022/03/19 01:59:26;;;;;;;;;;;-0.10;89.40;;;;;;5025953;28;19909;-79
2022/03/19 02:01:52;;;;;;;;;;;-0.10;89.40;;;;;;5023891;28;19920;-79
2022/03/19 02:04:19;;;;;;;;;;;-0.10;89.10;;;;;;5019989;28;19909;-79
2022/03/19 02:06:45;;;;;;;;;;;-0.20;89.50;;;;;;5020028;28;19909;-80
2022/03/19 02:09:10;;;;;;;;;;;-0.20;89.90;;;;;;5018264;28;19979;-79
2022/03/19 02:11:36;;;;;;;;;;;-0.30;90.10;;;;;;5019671;28;20205;-79
2022/03/19 02:14:02;;;;;;;;;;;-0.30;90.20;;;;;;5019206;28;19909;-80
2022/03/19 02:16:27;;;;;;;;;;;-0.40;90.40;;;;;;5018039;28;19925;-79
2022/03/19 02:18:53;;;;;;;;;;;-0.40;90.60;;;;;;5020147;28;20407;-80
2022/03/19 02:21:19;;;;;;;;;;;-0.40;90.50;;;;;;5019017;28;19909;-80
2022/03/19 02:26:41;;;;;;;;;;;-0.50;90.50;;;;;;5019337;28;19970;-79
2022/03/19 02:29:06;;;;;;;;;;;-0.50;90.50;;;;;;5019047;28;19909;-79
2022/03/19 02:31:32;;;;;;;;;;;-0.50;90.60;;;;;;5019261;28;20493;-80
2022/03/19 02:33:57;;;;;;;;;;;-0.60;90.50;;;;;;5019495;28;19909;-79
2022/03/19 02:36:23;;;;;;;;;;;-0.60;90.60;;;;;;5017948;28;20351;-79
2022/03/19 02:38:51;;;;;;;;;;;-0.70;90.60;;;;;;5019134;28;20262;-80
2022/03/19 02:41:17;;;;;;;;;;;-0.60;90.60;;;;;;5018992;28;19920;-80
2022/03/19 02:43:42;;;;;;;;;;;-0.70;90.50;;;;;;5019213;28;20264;-79
2022/03/19 02:46:08;;;;;;;;;;;-0.60;90.80;;;;;;5019437;28;19913;-80
2022/03/19 02:48:34;;;;;;;;;;;-0.60;90.40;;;;;;5019702;28;19932;-79
2022/03/19 02:51:00;;;;;;;;;;;-0.50;90.30;;;;;;5019408;28;20419;-80
2022/03/19 02:53:26;;;;;;;;;;;-0.70;90.30;;;;;;5019559;28;19935;-79
2022/03/19 02:55:52;;;;;;;;;;;-0.40;90.30;;;;;;5018081;28;19925;-79
2022/03/19 02:58:17;;;;;;;;;;;-0.60;90.30;;;;;;5018685;28;19917;-79
2022/03/19 03:00:43;;;;;;;;;;;-0.10;90.40;;;;;;5019282;28;19987;-79
2022/03/19 03:03:09;;;;;;;;;;;-0.70;90.20;;;;;;5020836;28;19909;-80
2022/03/19 03:05:35;;;;;;;;;;;-0.40;90.40;;;;;;5023367;28;19944;-79
2022/03/19 03:08:01;;;;;;;;;;;-0.80;90.70;;;;;;5021770;28;19996;-79
2022/03/19 03:10:27;;;;;;;;;;;-0.80;90.90;;;;;;5023425;28;20355;-80
2022/03/19 03:12:53;;;;;;;;;;;-0.90;90.70;;;;;;5023539;28;20584;-79
2022/03/19 03:15:19;;;;;;;;;;;-0.90;90.90;;;;;;5022212;28;19948;-80
2022/03/19 03:17:44;;;;;;;;;;;-0.90;91.10;;;;;;5023965;28;19967;-79
2022/03/19 03:20:10;;;;;;;;;;;-0.80;91.10;;;;;;5022092;28;19920;-80
2022/03/19 03:22:37;;;;;;;;;;;-0.90;90.90;;;;;;5022409;28;20367;-80
2022/03/19 03:25:03;;;;;;;;;;;-0.90;90.90;;;;;;5023154;28;20371;-79
2022/03/19 03:27:29;;;;;;;;;;;-1.00;90.80;;;;;;5021849;28;19913;-80
2022/03/19 03:29:55;;;;;;;;;;;-0.90;90.80;;;;;;5023366;28;19925;-79
2022/03/19 03:32:20;;;;;;;;;;;-0.90;90.90;;;;;;5021464;28;19955;-80
2022/03/19 03:34:46;;;;;;;;;;;-0.90;90.70;;;;;;5022841;28;20284;-79
2022/03/19 03:37:12;;;;;;;;;;;-1.30;90.50;;;;;;5023156;28;19915;-79
2022/03/19 03:39:37;;;;;;;;;;;-0.90;90.50;;;;;;5022972;28;19951;-79
2022/03/19 03:42:03;;;;;;;;;;;-0.90;90.50;;;;;;5021670;28;19963;-79
2022/03/19 03:44:28;;;;;;;;;;;-0.90;90.70;;;;;;5022036;28;19913;-79
2022/03/19 03:46:54;;;;;;;;;;;-0.90;90.70;;;;;;5023072;28;19917;-79
2022/03/19 03:49:20;;;;;;;;;;;-0.90;90.90;;;;;;5022772;28;19909;-79
2022/03/19 03:51:45;;;;;;;;;;;-0.90;90.90;;;;;;5023796;28;20004;-79
2022/03/19 03:54:11;;;;;;;;;;;-1.00;90.90;;;;;;5022103;28;19963;-79
2022/03/19 03:56:36;;;;;;;;;;;-0.10;91.30;;;;;;5024105;28;19968;-79
2022/03/19 03:59:02;;;;;;;;;;;-1.10;91.10;;;;;;5024546;28;19971;-79
2022/03/19 04:01:27;;;;;;;;;;;-1.10;91.10;;;;;;5023028;28;20463;-79
2022/03/19 04:03:54;;;;;;;;;;;-1.10;91.20;;;;;;5022773;28;20330;-79
2022/03/19 04:06:20;;;;;;;;;;;-1.20;91.20;;;;;;5023515;28;19917;-79
2022/03/19 04:08:45;;;;;;;;;;;-1.20;91.20;;;;;;5028125;28;20265;-79
2022/03/19 04:11:11;;;;;;;;;;;-1.30;91.20;;;;;;5029055;28;19909;-79
2022/03/19 04:13:36;;;;;;;;;;;-1.30;91.40;;;;;;5024905;28;19964;-79
2022/03/19 04:16:02;;;;;;;;;;;-1.40;91.40;;;;;;5024110;28;19932;-79
2022/03/19 04:18:28;;;;;;;;;;;-1.30;91.40;;;;;;5023928;28;19915;-79
2022/03/19 04:20:54;;;;;;;;;;;-1.40;91.50;;;;;;5023406;28;19923;-79
2022/03/19 04:23:20;;;;;;;;;;;-1.40;91.80;;;;;;5024229;28;19971;-79
2022/03/19 04:25:46;;;;;;;;;;;-1.40;91.90;;;;;;5027745;28;20024;-79
2022/03/19 04:28:13;;;;;;;;;;;-2.30;91.60;;;;;;5031333;28;20602;-79
2022/03/19 04:30:39;;;;;;;;;;;-1.60;91.70;;;;;;5029237;28;19912;-79
2022/03/19 04:33:05;;;;;;;;;;;-1.40;91.80;;;;;;5028634;28;20102;-79
2022/03/19 04:38:16;;;;;;;;;;;-1.40;91.80;;;;;;5023959;28;19916;-80
2022/03/19 04:40:42;;;;;;;;;;;-1.40;91.70;;;;;;5020776;28;19967;-79
2022/03/19 04:43:08;;;;;;;;;;;-1.50;92.00;;;;;;5020618;28;19909;-79
2022/03/19 04:45:34;;;;;;;;;;;-1.50;91.90;;;;;;5021420;28;20421;-80
2022/03/19 04:48:00;;;;;;;;;;;-1.60;92.10;;;;;;5038225;28;20024;-78
2022/03/19 04:50:26;;;;;;;;;;;-1.60;92.00;;;;;;5038971;28;19909;-79
2022/03/19 04:52:52;;;;;;;;;;;-1.60;92.00;;;;;;5039553;28;20117;-79
2022/03/19 04:55:17;;;;;;;;;;;-1.40;92.30;;;;;;5041176;28;20523;-80
2022/03/19 04:57:43;;;;;;;;;;;-1.60;92.00;;;;;;5024945;28;19917;-78
2022/03/19 05:00:10;;;;;;;;;;;-1.50;91.90;;;;;;5022258;28;19909;-79
2022/03/19 05:02:36;;;;;;;;;;;-1.50;91.90;;;;;;5021457;28;20400;-80
2022/03/19 05:05:02;;;;;;;;;;;-1.50;91.70;;;;;;5020334;28;19936;-80
2022/03/19 05:07:28;;;;;;;;;;;-1.60;91.60;;;;;;5022264;28;20296;-79
2022/03/19 05:12:43;;;;;;;;;;;-1.60;91.90;;;;;;5021344;28;20458;-79
2022/03/19 05:15:12;;;;;;;;;;;-1.60;92.10;;;;;;5020432;28;20400;-79
2022/03/19 05:17:38;;;;;;;;;;;-1.60;92.00;;;;;;5019953;28;19909;-79
2022/03/19 05:20:04;;;;;;;;;;;-1.60;91.90;;;;;;5021452;28;19909;-79
2022/03/19 05:22:30;;;;;;;;;;;-1.50;92.00;;;;;;5020102;28;20185;-79
2022/03/19 05:24:59;;;;;;;;;;;0.60;92.20;;;;;;5019511;28;20027;-80
2022/03/19 05:27:24;;;;;;;;;;;-1.50;91.70;;;;;;5021226;28;20461;-79
2022/03/19 05:29:50;;;;;;;;;;;-1.50;91.80;;;;;;5021474;28;19909;-79
2022/03/19 05:32:16;;;;;;;;;;;-0.90;91.90;;;;;;5021601;28;19909;-79
2022/03/19 05:34:42;;;;;;;;;;;-1.50;91.90;;;;;;5021370;28;19913;-80
2022/03/19 05:37:09;;;;;;;;;;;-1.40;91.80;;;;;;5019998;28;20148;-79
2022/03/19 05:39:36;;;;;;;;;;;-1.50;91.60;;;;;;5019606;28;20550;-79
2022/03/19 05:42:01;;;;;;;;;;;-0.90;91.80;;;;;;5019511;28;20004;-79
2022/03/19 05:44:27;;;;;;;;;;;-1.50;91.40;;;;;;5019931;28;20032;-80
2022/03/19 05:46:52;;;;;;;;;;;-1.30;91.50;;;;;;5027765;28;19940;-79
2022/03/19 05:49:18;;;;;;;;;;;-1.40;91.40;;;;;;5033223;28;20352;-79
2022/03/19 05:51:43;;;;;;;;;;;-1.30;91.50;;;;;;5030061;28;19923;-79
2022/03/19 05:54:10;;;;;;;;;;;-1.30;91.10;;;;;;5020151;28;19920;-79
2022/03/19 05:56:35;;;;;;;;;;;-1.20;91.10;;;;;;5021178;28;20257;-80
2022/03/19 05:59:01;;;;;;;;;;;-0.80;91.30;;;;;;5021201;28;19982;-79
2022/03/19 06:01:27;;;;;;;;;;;-1.10;91.00;;;;;;5020828;28;20293;-79
2022/03/19 06:03:56;;;;;;;;;;;-1.10;90.90;;;;;;5020503;28;20322;-79
2022/03/19 06:06:22;;;;;;;;;;;-1.00;90.80;;;;;;5020844;28;20024;-80
2022/03/19 06:08:47;;;;;;;;;;;-1.00;90.70;;;;;;5020492;28;20003;-79
2022/03/19 06:11:13;;;;;;;;;;;-0.40;90.80;;;;;;5019093;28;19920;-79
2022/03/19 06:14:00;;;;;;;;;;;-0.90;90.50;;;;;;5019864;28;20261;-79
2022/03/19 06:16:26;;;;;;;;;;;-0.80;90.90;;;;;;5021183;28;19909;-79
2022/03/19 06:18:51;;;;;;;;;;;-0.60;90.50;;;;;;5027483;28;19944;-80
2022/03/19 06:21:22;;;;;;;;;;;0.30;90.50;;;;;;5023991;28;19921;-79
2022/03/19 06:23:49;;;;;;;;;;;-0.50;90.00;;;;;;5019504;28;19936;-79
2022/03/19 06:26:15;;;;;;;;;;;-0.30;90.00;;;;;;5019079;28;19925;-79
2022/03/19 06:28:40;;;;;;;;;;;-0.20;89.50;;;;;;5019792;28;19909;-79
2022/03/19 06:31:06;;;;;;;;;;;-0.20;88.80;;;;;;5019619;28;19909;-80
2022/03/19 06:33:32;;;;;;;;;;;-0.10;88.40;;;;;;5019470;28;20589;-79
2022/03/19 06:38:42;;;;;;;;;;;0.10;87.70;;;;;;5022108;28;19983;-79
2022/03/19 06:41:07;;;;;;;;;;;0.30;87.20;;;;;;5023709;28;19913;-79
2022/03/19 06:43:33;;;;;;;;;;;0.50;86.40;;;;;;5023500;28;19913;-79
2022/03/19 06:45:59;;;;;;;;;;;0.70;86.10;;;;;;5023699;28;19933;-81
2022/03/19 06:48:25;;;;;;;;;;;0.90;85.80;;;;;;5023539;28;19914;-79
2022/03/19 06:50:51;;;;;;;;;;;1.00;84.70;;;;;;5022638;28;19963;-80
2022/03/19 06:53:16;;;;;;;;;;;1.20;84.30;;;;;;5024408;28;19917;-79
2022/03/19 06:55:42;;;;;;;;;;;1.30;82.90;;;;;;5022977;28;19925;-79
2022/03/19 06:58:07;;;;;;;;;;;1.50;82.70;;;;;;5023545;28;20417;-79
2022/03/19 07:00:33;;;;;;;;;;;1.60;81.30;;;;;;5024593;28;19913;-80
2022/03/19 07:02:58;;;;;;;;;;;1.80;81.00;;;;;;5025082;28;19916;-79
2022/03/19 07:05:25;;;;;;;;;;;1.90;79.50;;;;;;5024638;28;20227;-79
2022/03/19 07:07:51;;;;;;;;;;;2.00;78.00;;;;;;5023165;28;19962;-79
2022/03/19 07:10:19;;;;;;;;;;;2.20;76.20;;;;;;5024140;28;19909;-80
2022/03/19 07:12:45;;;;;;;;;;;2.40;75.50;;;;;;5025004;28;19944;-80
2022/03/19 07:15:14;;;;;;;;;;;2.40;75.10;;;;;;5024538;28;20008;-80
2022/03/19 07:17:40;;;;;;;;;;;2.50;74.70;;;;;;5023923;28;19913;-79
2022/03/19 07:20:06;;;;;;;;;;;2.60;74.10;;;;;;5023311;28;19933;-79
2022/03/19 07:22:51;;;;;;;;;;;2.80;73.50;;;;;;5024936;28;19948;-80
2022/03/19 07:25:18;;;;;;;;;;;3.00;72.50;;;;;;5025535;28;19917;-79
2022/03/19 07:27:44;;;;;;;;;;;3.10;69.40;;;;;;5026181;28;19921;-80
2022/03/19 07:30:10;;;;;;;;;;;3.30;68.50;;;;;;5025953;28;19909;-80
2022/03/19 07:32:37;;;;;;;;;;;3.40;64.80;;;;;;5027486;28;19909;-80
2022/03/19 07:35:02;;;;;;;;;;;3.60;65.00;;;;;;5028690;28;19913;-79
2022/03/19 07:37:28;;;;;;;;;;;3.80;63.30;;;;;;5029859;28;20136;-80
2022/03/19 07:39:58;;;;;;;;;;;4.00;62.90;;;;;;5029046;28;19941;-79
2022/03/19 07:42:23;;;;;;;;;;;4.20;59.80;;;;;;5028474;28;19992;-79
2022/03/19 07:44:49;;;;;;;;;;;4.40;58.00;;;;;;5028996;28;19960;-80
2022/03/19 07:47:15;;;;;;;;;;;4.60;56.40;;;;;;5028605;28;19921;-80
2022/03/19 07:49:40;;;;;;;;;;;4.70;56.50;;;;;;5026650;28;20423;-79
2022/03/19 07:52:10;;;;;;;;;;;4.80;55.50;;;;;;5027540;28;19944;-80
2022/03/19 07:54:36;;;;;;;;;;;5.10;54.40;;;;;;5027152;28;19948;-80
2022/03/19 07:57:02;;;;;;;;;;;5.30;53.10;;;;;;5035587;28;19917;-79
2022/03/19 07:59:28;;;;;;;;;;;5.40;53.30;;;;;;5037019;28;19998;-80
2022/03/19 08:01:54;;;;;;;;;;;5.60;52.40;;;;;;5035198;28;19913;-80
2022/03/19 08:04:19;;;;;;;;;;;6.90;53.00;;;;;;5037566;28;19919;-79
2022/03/19 08:06:45;;;;;;;;;;;5.90;50.40;;;;;;5031086;28;19921;-80
2022/03/19 08:09:11;;;;;;;;;;;6.00;49.90;;;;;;5026096;28;20408;-80
2022/03/19 08:11:37;;;;;;;;;;;6.10;49.60;;;;;;5024156;28;20363;-79
2022/03/19 08:14:03;;;;;;;;;;;6.10;50.00;;;;;;5025321;28;19913;-79
2022/03/19 08:16:28;;;;;;;;;;;6.30;49.70;;;;;;5024219;28;20008;-79
2022/03/19 08:18:54;;;;;;;;;;;6.40;48.20;;;;;;5026542;28;20621;-79
2022/03/19 08:21:20;;;;;;;;;;;6.50;47.90;;;;;;5024835;28;19996;-79
2022/03/19 08:23:47;;;;;;;;;;;6.60;48.00;;;;;;5027584;28;19916;-79
2022/03/19 08:26:12;;;;;;;;;;;6.50;47.10;;;;;;5024935;28;19998;-80
2022/03/19 08:28:38;;;;;;;;;;;6.90;45.60;;;;;;5026763;28;20514;-80
2022/03/19 08:31:04;;;;;;;;;;;7.00;44.30;;;;;;5032276;28;19909;-80
2022/03/19 08:33:29;;;;;;;;;;;7.10;43.70;;;;;;5025983;28;20010;-80
2022/03/19 08:35:55;;;;;;;;;;;7.10;43.40;;;;;;5023771;28;19920;-79
2022/03/19 08:41:05;;;;;;;;;;;7.30;43.50;;;;;;5024126;28;20113;-79
2022/03/19 08:43:30;;;;;;;;;;;7.40;43.70;;;;;;5023623;28;20432;-80
2022/03/19 08:45:56;;;;;;;;;;;7.50;42.60;;;;;;5023555;28;20327;-80
2022/03/19 08:48:21;;;;;;;;;;;7.60;43.00;;;;;;5023237;28;19909;-80
2022/03/19 08:50:47;;;;;;;;;;;7.80;42.90;;;;;;5023449;28;19909;-79
2022/03/19 08:53:13;;;;;;;;;;;7.90;42.00;;;;;;5021684;28;19910;-80
2022/03/19 08:55:39;;;;;;;;;;;8.00;42.10;;;;;;5023733;28;19925;-80
2022/03/19 08:58:05;;;;;;;;;;;8.10;41.70;;;;;;5021335;28;19920;-79
2022/03/19 09:00:30;;;;;;;;;;;8.20;41.10;;;;;;5022054;28;20381;-80
2022/03/19 09:02:56;;;;;;;;;;;8.30;41.30;;;;;;5020543;28;20270;-80
2022/03/19 09:05:22;;;;;;;;;;;8.30;41.20;;;;;;5020604;28;19987;-80
2022/03/19 09:07:48;;;;;;;;;;;8.40;40.90;;;;;;5019925;28;19912;-79
2022/03/19 09:10:14;;;;;;;;;;;8.50;40.40;;;;;;5020316;28;19920;-80
2022/03/19 09:12:40;;;;;;;;;;;8.60;40.40;;;;;;5021803;28;19913;-80
2022/03/19 09:15:06;;;;;;;;;;;8.70;39.90;;;;;;5022367;28;19940;-80
2022/03/19 09:17:32;;;;;;;;;;;8.70;40.80;;;;;;5021661;28;19909;-80
2022/03/19 09:19:58;;;;;;;;;;;8.80;40.30;;;;;;5021511;28;20047;-79
2022/03/19 09:22:23;;;;;;;;;;;8.90;39.90;;;;;;5023232;28;20356;-80
2022/03/19 09:24:49;;;;;;;;;;;9.00;39.20;;;;;;5022463;28;19957;-80
2022/03/19 09:27:14;;;;;;;;;;;9.10;39.60;;;;;;5020605;28;20376;-80
2022/03/19 09:29:42;;;;;;;;;;;9.20;39.10;;;;;;5021543;28;19999;-80
2022/03/19 09:32:09;;;;;;;;;;;9.30;39.80;;;;;;5023016;28;19909;-80
2022/03/19 09:34:35;;;;;;;;;;;9.30;38.90;;;;;;5023868;28;20296;-80
2022/03/19 09:37:01;;;;;;;;;;;9.40;39.10;;;;;;5022017;28;19963;-80
2022/03/19 09:39:26;;;;;;;;;;;9.40;38.30;;;;;;5024113;28;19939;-80
2022/03/19 09:41:53;;;;;;;;;;;9.40;38.90;;;;;;5025130;28;19945;-80
2022/03/19 09:44:23;;;;;;;;;;;9.50;38.60;;;;;;5029757;28;19920;-80
2022/03/19 09:46:49;;;;;;;;;;;9.60;38.40;;;;;;5026972;28;19924;-80
2022/03/19 09:49:15;;;;;;;;;;;9.60;38.20;;;;;;5024023;28;20323;-80
2022/03/19 09:51:40;;;;;;;;;;;9.60;38.70;;;;;;5024527;28;20560;-77
2022/03/19 09:54:09;;;;;;;;;;;9.70;38.10;;;;;;5022872;28;19920;-78
2022/03/19 09:56:36;;;;;;;;;;;9.80;37.20;;;;;;5022192;28;19929;-78
2022/03/19 09:59:02;;;;;;;;;;;9.70;37.40;;;;;;5021053;28;20370;-80
2022/03/19 10:01:31;;;;;;;;;;;9.80;37.10;;;;;;5024376;28;19948;-80
2022/03/19 10:04:00;;;;;;;;;;;9.70;37.20;;;;;;5023597;28;19910;-80
2022/03/19 10:09:16;;;;;;;;;;;9.90;37.60;;;;;;5023878;28;19948;-78
2022/03/19 10:11:46;;;;;;;;;;;10.00;38.10;;;;;;5027367;28;19916;-78
2022/03/19 10:14:12;;;;;;;;;;;10.20;36.20;;;;;;5027372;28;19916;-81
2022/03/19 10:16:38;;;;;;;;;;;10.30;36.50;;;;;;5032795;28;20323;-80
2022/03/19 10:19:06;;;;;;;;;;;10.30;35.60;;;;;;5035343;28;19913;-80
2022/03/19 10:21:35;;;;;;;;;;;10.50;36.40;;;;;;5032385;28;19909;-80
2022/03/19 10:24:01;;;;;;;;;;;11.40;36.30;;;;;;5030495;28;20177;-80
2022/03/19 10:26:27;;;;;;;;;;;10.80;36.40;;;;;;5033038;28;19972;-80
2022/03/19 10:28:59;;;;;;;;;;;10.90;36.00;;;;;;5031130;28;19910;-80
2022/03/19 10:31:32;;;;;;;;;;;11.10;35.70;;;;;;5032876;28;20208;-80
2022/03/19 10:33:58;;;;;;;;;;;11.10;34.90;;;;;;5031473;28;19913;-80
2022/03/19 10:36:36;;;;;;;;;;;11.30;34.20;;;;;;5031009;28;20026;-81
2022/03/19 10:39:12;;;;;;;;;;;11.30;34.60;;;;;;5033670;28;20209;-80
2022/03/19 10:41:38;;;;;;;;;;;11.40;34.70;;;;;;5037295;28;19909;-80
2022/03/19 10:44:14;;;;;;;;;;;11.40;33.90;;;;;;5035190;28;19920;-80
2022/03/19 10:46:49;;;;;;;;;;;11.30;33.50;;;;;;5034131;28;19940;-81
2022/03/19 10:49:16;;;;;;;;;;;11.40;33.90;;;;;;5033287;28;19959;-80
2022/03/19 10:51:43;;;;;;;;;;;11.50;34.20;;;;;;5028353;28;20376;-80
2022/03/19 10:54:11;;;;;;;;;;;11.60;34.00;;;;;;5029589;28;19909;-80
2022/03/19 10:56:38;;;;;;;;;;;11.60;32.40;;;;;;5034471;28;19925;-80
2022/03/19 10:59:03;;;;;;;;;;;11.70;33.00;;;;;;5036690;28;20111;-80
2022/03/19 11:01:31;;;;;;;;;;;11.60;31.80;;;;;;5037092;28;19988;-79
2022/03/19 11:04:01;;;;;;;;;;;12.00;33.30;;;;;;5039262;28;20233;-80
2022/03/19 11:06:29;;;;;;;;;;;11.90;32.30;;;;;;5042716;28;20094;-80
2022/03/19 11:08:55;;;;;;;;;;;12.00;32.60;;;;;;5040155;28;19913;-80
2022/03/19 11:11:27;;;;;;;;;;;12.20;32.60;;;;;;5041101;28;19985;-80
2022/03/19 11:13:54;;;;;;;;;;;12.40;32.30;;;;;;5031548;28;19935;-80
2022/03/19 11:16:21;;;;;;;;;;;12.60;32.30;;;;;;5028515;28;19909;-80
2022/03/19 11:18:49;;;;;;;;;;;12.70;32.30;;;;;;5029128;28;19913;-80
2022/03/19 11:21:16;;;;;;;;;;;12.70;32.50;;;;;;5027102;28;19916;-80
2022/03/19 11:23:47;;;;;;;;;;;12.90;32.40;;;;;;5028279;28;20406;-80
2022/03/19 11:26:15;;;;;;;;;;;13.10;32.30;;;;;;5027003;28;19921;-80
2022/03/19 11:28:40;;;;;;;;;;;13.30;31.90;;;;;;5027172;28;19940;-80
2022/03/19 11:31:09;;;;;;;;;;;13.10;31.40;;;;;;5025809;28;19963;-81
2022/03/19 11:33:35;;;;;;;;;;;13.20;31.30;;;;;;5023847;28;20228;-78
2022/03/19 11:36:01;;;;;;;;;;;13.30;31.30;;;;;;5024935;28;19970;-78
2022/03/19 11:38:27;;;;;;;;;;;13.50;31.00;;;;;;5023995;28;20413;-80
2022/03/19 11:40:57;;;;;;;;;;;13.60;31.00;;;;;;5023407;28;19916;-78
2022/03/19 11:43:34;;;;;;;;;;;13.70;31.20;;;;;;5023024;28;20186;-78
2022/03/19 11:46:03;;;;;;;;;;;14.00;30.80;;;;;;5022321;28;19916;-79
2022/03/19 11:48:35;;;;;;;;;;;14.20;31.40;;;;;;5022230;28;19979;-79
2022/03/19 11:51:19;;;;;;;;;;;14.10;30.80;;;;;;5022365;28;19909;-80
2022/03/19 11:54:01;;;;;;;;;;;14.50;31.40;;;;;;5022457;28;19916;-79
2022/03/19 11:56:47;;;;;;;;;;;14.70;29.60;;;;;;5023212;28;19925;-78
2022/03/19 11:59:32;;;;;;;;;;;16.70;30.50;;;;;;5021857;28;19910;-80
2022/03/19 12:02:05;;;;;;;;;;;14.80;30.20;;;;;;5022372;28;19909;-79
2022/03/19 12:04:42;;;;;;;;;;;15.10;30.10;;;;;;5023137;28;19913;-79
2022/03/19 12:07:08;;;;;;;;;;;15.30;30.10;;;;;;5020432;28;19960;-79
2022/03/19 12:09:39;;;;;;;;;;;15.50;29.10;;;;;;5021087;28;19951;-79
2022/03/19 12:12:11;;;;;;;;;;;15.30;28.70;;;;;;5020891;28;20197;-78
2022/03/19 12:14:37;;;;;;;;;;;15.30;29.90;;;;;;5022567;28;19971;-79
2022/03/19 12:17:21;;;;;;;;;;;15.10;29.20;;;;;;5022336;28;19920;-79
2022/03/19 12:19:48;;;;;;;;;;;14.90;29.00;;;;;;5024634;28;19959;-79
2022/03/19 12:22:24;;;;;;;;;;;14.80;30.30;;;;;;5021876;28;19974;-79
2022/03/19 12:24:51;;;;;;;;;;;14.80;29.70;;;;;;5022317;28;19924;-79
2022/03/19 12:27:17;;;;;;;;;;;16.90;30.90;;;;;;5022802;28;19964;-80
2022/03/19 12:29:42;;;;;;;;;;;15.30;29.80;;;;;;5023822;28;19910;-80
2022/03/19 12:32:08;;;;;;;;;;;15.70;29.90;;;;;;5020804;28;19917;-79
2022/03/19 12:34:34;;;;;;;;;;;15.80;29.60;;;;;;5022454;28;19913;-79
2022/03/19 12:37:01;;;;;;;;;;;15.90;29.20;;;;;;5019839;28;19980;-80
2022/03/19 12:39:27;;;;;;;;;;;16.00;29.30;;;;;;5020481;28;20164;-78
2022/03/19 12:41:53;;;;;;;;;;;15.90;28.70;;;;;;5020302;28;20213;-79
2022/03/19 12:44:26;;;;;;;;;;;16.30;29.80;;;;;;5020670;28;20265;-79
2022/03/19 12:46:52;;;;;;;;;;;16.40;29.40;;;;;;5018893;28;19939;-78
2022/03/19 12:49:18;;;;;;;;;;;16.10;28.60;;;;;;5019993;28;19909;-79
2022/03/19 12:51:46;;;;;;;;;;;18.00;29.70;;;;;;5021025;28;19919;-79
2022/03/19 12:54:25;;;;;;;;;;;16.60;28.40;;;;;;5020894;28;19912;-78
2022/03/19 12:56:52;;;;;;;;;;;16.90;29.10;;;;;;5018672;28;20382;-79
2022/03/19 12:59:21;;;;;;;;;;;16.90;28.70;;;;;;5018607;28;19963;-79
2022/03/19 13:01:47;;;;;;;;;;;16.90;28.70;;;;;;5019409;28;19916;-78
2022/03/19 13:04:20;;;;;;;;;;;16.90;28.40;;;;;;5018473;28;19913;-79
2022/03/19 13:06:46;;;;;;;;;;;16.80;28.20;;;;;;5019672;28;20177;-79
2022/03/19 13:09:11;;;;;;;;;;;17.00;27.30;;;;;;5019788;28;20535;-78
2022/03/19 13:11:49;;;;;;;;;;;17.30;27.80;;;;;;5019677;28;20364;-79
2022/03/19 13:14:15;;;;;;;;;;;17.50;27.90;;;;;;5019405;28;20414;-79
2022/03/19 13:16:42;;;;;;;;;;;17.60;27.30;;;;;;5019988;28;19988;-79
2022/03/19 13:19:08;;;;;;;;;;;17.70;27.70;;;;;;5020167;28;19917;-79
2022/03/19 13:21:34;;;;;;;;;;;17.90;27.60;;;;;;5019629;28;20435;-78
2022/03/19 13:24:00;;;;;;;;;;;18.00;27.20;;;;;;5019842;28;20530;-79
2022/03/19 13:26:27;;;;;;;;;;;18.10;27.00;;;;;;5017940;28;20273;-79
2022/03/19 13:29:05;;;;;;;;;;;17.90;26.10;;;;;;5019643;28;19910;-79
2022/03/19 13:31:34;;;;;;;;;;;18.80;26.60;;;;;;5018402;28;19909;-79
2022/03/19 13:34:01;;;;;;;;;;;18.10;26.40;;;;;;5018195;28;19948;-79
2022/03/19 13:36:28;;;;;;;;;;;18.20;26.40;;;;;;5022503;28;19917;-78
2022/03/19 13:38:55;;;;;;;;;;;18.10;25.70;;;;;;5026204;28;20232;-79
2022/03/19 13:41:20;;;;;;;;;;;18.00;26.10;;;;;;5025494;28;19909;-79
2022/03/19 13:43:46;;;;;;;;;;;18.40;26.30;;;;;;5019862;28;19920;-79
2022/03/19 13:46:13;;;;;;;;;;;18.40;26.00;;;;;;5019339;28;19917;-79
2022/03/19 13:48:39;;;;;;;;;;;18.30;25.90;;;;;;5019424;28;20137;-78
2022/03/19 13:51:05;;;;;;;;;;;18.30;26.10;;;;;;5018925;28;20116;-79
2022/03/19 13:53:41;;;;;;;;;;;18.40;26.10;;;;;;5019021;28;19909;-79
2022/03/19 13:56:07;;;;;;;;;;;18.40;26.00;;;;;;5018919;28;19955;-79
2022/03/19 13:58:35;;;;;;;;;;;17.70;26.30;;;;;;5018438;28;20434;-79
2022/03/19 14:01:25;;;;;;;;;;;18.80;26.10;;;;;;5019589;28;19909;-79
2022/03/19 14:03:50;;;;;;;;;;;19.10;25.80;;;;;;5026848;28;19986;-80
2022/03/19 14:06:16;;;;;;;;;;;18.90;25.30;;;;;;5030897;28;19968;-79
2022/03/19 14:08:41;;;;;;;;;;;19.10;25.80;;;;;;5032116;28;19917;-79
2022/03/19 14:11:12;;;;;;;;;;;19.20;25.40;;;;;;5031993;28;20034;-80
2022/03/19 14:13:39;;;;;;;;;;;21.10;26.70;;;;;;5028553;28;19909;-80
2022/03/19 14:16:08;;;;;;;;;;;19.50;25.60;;;;;;5021639;28;20319;-80
2022/03/19 14:18:34;;;;;;;;;;;19.70;25.40;;;;;;5020720;28;20458;-79
2022/03/19 14:21:03;;;;;;;;;;;19.70;25.20;;;;;;5019515;28;19956;-79
2022/03/19 14:23:30;;;;;;;;;;;19.90;25.90;;;;;;5017966;28;20151;-80
2022/03/19 14:25:56;;;;;;;;;;;19.40;25.50;;;;;;5019197;28;19924;-81
2022/03/19 14:28:22;;;;;;;;;;;19.50;25.20;;;;;;5018054;28;19917;-79
2022/03/19 14:30:48;;;;;;;;;;;19.60;25.70;;;;;;5018882;28;20198;-79
2022/03/19 14:33:14;;;;;;;;;;;19.70;25.00;;;;;;5019450;28;19913;-79
2022/03/19 14:35:43;;;;;;;;;;;19.70;25.40;;;;;;5019018;28;20137;-81
2022/03/19 14:38:11;;;;;;;;;;;20.10;24.90;;;;;;5017266;28;20323;-78
2022/03/19 14:40:37;;;;;;;;;;;20.90;25.80;;;;;;5018844;28;19913;-79